Time;durP1;ratioP1;P1;durP2;ratioP2;P2;SDS_P1;SDS_P2;PMS_P1;PMS_P2;Temp;Humidity;BMP_temperature;BMP_pressure;BME280_temperature;BME280_humidity;BME280_pressure;Samples;Min_cycle;Max_cycle;Signal;HPM_P1;HPM_P2
2023/09/11 00:01:14;;;;;;;;;24.00;20.67;;;;;27.55;56.77;100632.34;4891298;29;44860;-84
2023/09/11 00:03:39;;;;;;;;;29.00;25.67;;;;;27.57;57.17;100635.00;4908218;29;45498;-84
2023/09/11 00:06:05;;;;;;;;;29.33;27.67;;;;;27.54;57.36;100631.47;4908941;28;44785;-83
2023/09/11 00:08:30;;;;;;;;;24.67;23.00;;;;;27.63;57.56;100629.16;4909806;28;44847;-83
2023/09/11 00:10:58;;;;;;;;;25.33;24.67;;;;;27.58;57.13;100628.56;4893726;28;44806;-83
2023/09/11 00:13:26;;;;;;;;;22.67;22.33;;;;;27.59;57.75;100631.22;4892827;28;47405;-83
2023/09/11 00:15:51;;;;;;;;;28.67;28.67;;;;;27.42;58.08;100626.72;4908366;29;44862;-83
2023/09/11 00:18:17;;;;;;;;;27.33;24.33;;;;;27.39;57.91;100628.75;4910402;28;45867;-83
2023/09/11 00:20:42;;;;;;;;;25.00;23.00;;;;;27.38;58.18;100627.00;4909633;28;44750;-83
2023/09/11 00:23:08;;;;;;;;;27.00;23.67;;;;;27.34;58.36;100618.97;4908728;28;45232;-83
2023/09/11 00:25:34;;;;;;;;;25.33;23.33;;;;;27.34;58.78;100618.97;4909557;28;44802;-83
2023/09/11 00:28:00;;;;;;;;;25.33;24.67;;;;;27.33;58.54;100622.69;4910918;28;45529;-83
2023/09/11 00:30:25;;;;;;;;;27.67;26.67;;;;;27.38;58.92;100618.81;4910377;28;45511;-83
2023/09/11 00:32:51;;;;;;;;;29.67;27.33;;;;;27.34;59.37;100624.44;4910586;29;45415;-83
2023/09/11 00:35:16;;;;;;;;;24.33;24.33;;;;;27.31;58.77;100630.09;4911492;29;44967;-83
2023/09/11 00:37:42;;;;;;;;;28.33;27.67;;;;;27.25;58.88;100629.56;4911062;29;45124;-83
2023/09/11 00:40:08;;;;;;;;;32.00;29.33;;;;;27.20;59.12;100616.13;4895074;28;44833;-83
2023/09/11 00:42:35;;;;;;;;;29.00;27.33;;;;;27.29;59.32;100620.22;4910020;28;47316;-82
2023/09/11 00:45:01;;;;;;;;;27.00;27.00;;;;;27.14;59.03;100617.34;4909160;29;45357;-83
2023/09/11 00:47:27;;;;;;;;;24.33;24.33;;;;;27.20;58.97;100617.97;4909902;28;45799;-82
2023/09/11 00:49:55;;;;;;;;;27.67;25.67;;;;;27.25;59.80;100624.97;4891892;28;44821;-83
2023/09/11 00:52:22;;;;;;;;;25.67;24.33;;;;;27.18;60.00;100617.19;4892677;28;46891;-83
2023/09/11 00:54:47;;;;;;;;;26.67;26.67;;;;;27.16;60.42;100613.66;4908621;28;45342;-83
2023/09/11 00:57:17;;;;;;;;;25.67;25.00;;;;;27.17;59.97;100618.16;4909717;28;44899;-82
2023/09/11 00:59:48;;;;;;;;;27.00;27.00;;;;;27.15;60.32;100618.25;4910280;29;45399;-83
2023/09/11 01:02:15;;;;;;;;;30.33;28.33;;;;;27.12;59.45;100612.97;4896120;29;47216;-84
2023/09/11 01:04:41;;;;;;;;;31.67;29.33;;;;;27.12;60.43;100607.50;4910525;28;44803;-85
2023/09/11 01:07:07;;;;;;;;;31.67;29.67;;;;;27.08;60.30;100606.78;4894911;28;44926;-82
2023/09/11 01:09:33;;;;;;;;;27.00;27.00;;;;;27.10;60.28;100612.16;4894677;28;45453;-83
2023/09/11 01:11:59;;;;;;;;;34.67;29.67;;;;;27.06;60.51;100608.72;4911772;28;45076;-83
2023/09/11 01:14:25;;;;;;;;;25.67;25.67;;;;;27.04;60.58;100604.31;4911665;28;45362;-83
2023/09/11 01:17:28;;;;;;;;;24.33;20.67;;;;;27.14;60.18;100613.75;4909435;28;44875;-83
2023/09/11 01:20:44;;;;;;;;;28.00;27.00;;;;;27.12;60.24;100615.69;4910163;29;45454;-84
2023/09/11 01:23:36;;;;;;;;;31.67;28.67;;;;;27.01;60.79;100616.31;4872377;29;47171;-83
2023/09/11 01:26:16;;;;;;;;;28.00;28.00;;;;;26.97;61.46;100619.31;4871901;29;45303;-82
2023/09/11 01:29:09;;;;;;;;;31.00;29.00;;;;;26.94;61.56;100610.31;4871546;29;45412;-82
2023/09/11 01:31:37;;;;;;;;;29.33;28.67;;;;;26.82;61.82;100608.25;4872729;29;44882;-83
2023/09/11 01:34:03;;;;;;;;;28.67;25.33;;;;;26.83;61.92;100607.31;4855732;29;47384;-84
2023/09/11 01:36:29;;;;;;;;;28.33;27.33;;;;;26.72;61.55;100610.63;4871370;29;45272;-83
2023/09/11 01:38:56;;;;;;;;;25.67;25.67;;;;;26.78;62.06;100609.38;4855118;29;44796;-83
2023/09/11 01:41:35;;;;;;;;;26.00;25.67;;;;;26.82;62.26;100624.63;4873257;29;44837;-84
2023/09/11 01:44:08;;;;;;;;;29.00;27.67;;;;;26.84;62.42;100611.78;4872447;29;45247;-84
2023/09/11 01:46:35;;;;;;;;;28.33;28.33;;;;;26.71;61.95;100616.16;4856723;29;44908;-84
2023/09/11 01:49:02;;;;;;;;;31.67;29.33;;;;;26.77;62.59;100615.81;4873989;29;44920;-84
2023/09/11 01:51:30;;;;;;;;;29.00;28.00;;;;;26.76;62.64;100616.78;4873466;29;45403;-83
2023/09/11 01:53:57;;;;;;;;;32.67;28.67;;;;;26.70;62.64;100614.41;4872984;29;45623;-83
2023/09/11 01:56:26;;;;;;;;;29.00;28.33;;;;;26.62;62.29;100613.94;4873625;29;45290;-84
2023/09/11 01:58:51;;;;;;;;;28.33;28.33;;;;;26.60;62.97;100621.31;4888482;29;45511;-84
2023/09/11 02:01:17;;;;;;;;;29.67;28.67;;;;;26.57;62.63;100621.47;4897762;28;44935;-84
2023/09/11 02:03:42;;;;;;;;;29.00;29.00;;;;;26.53;63.25;100618.03;4894964;28;47675;-84
2023/09/11 02:06:07;;;;;;;;;33.00;31.67;;;;;26.59;63.24;100622.31;4910551;28;44786;-83
2023/09/11 02:08:33;;;;;;;;;29.00;26.33;;;;;26.58;62.81;100624.13;4909697;28;45414;-84
2023/09/11 02:10:59;;;;;;;;;29.00;27.00;;;;;26.60;62.85;100622.22;4909307;29;44882;-84
2023/09/11 02:13:25;;;;;;;;;27.00;25.00;;;;;26.51;62.81;100612.66;4909985;28;47054;-84
2023/09/11 02:15:50;;;;;;;;;29.33;26.67;;;;;26.53;63.05;100624.34;4909184;28;44797;-83
2023/09/11 02:18:15;;;;;;;;;25.50;25.50;;;;;26.50;63.59;100624.53;4910218;28;45241;-83
2023/09/11 02:24:43;;;;;;;;;26.33;25.67;;;;;26.69;63.13;100623.56;4909584;28;45384;-83
2023/09/11 02:27:09;;;;;;;;;29.33;26.33;;;;;26.52;63.23;100624.44;4910060;28;45283;-83
2023/09/11 02:29:34;;;;;;;;;24.33;24.33;;;;;26.49;63.52;100609.13;4893125;29;45345;-83
2023/09/11 02:32:03;;;;;;;;;29.67;29.00;;;;;26.44;63.46;100611.25;4908809;28;45388;-83
2023/09/11 02:34:28;;;;;;;;;28.67;26.33;;;;;26.44;64.31;100610.34;4908116;28;45665;-83
2023/09/11 02:36:55;;;;;;;;;33.00;29.67;;;;;26.46;64.09;100614.75;4892685;28;44817;-83
2023/09/11 02:39:20;;;;;;;;;25.33;25.33;;;;;26.45;63.76;100609.38;4909828;28;44881;-83
2023/09/11 02:41:46;;;;;;;;;26.00;26.00;;;;;26.39;64.21;100605.13;4910343;28;45407;-83
2023/09/11 02:44:11;;;;;;;;;25.67;25.67;;;;;26.40;63.87;100620.56;4909704;28;47466;-83
2023/09/11 02:46:37;;;;;;;;;28.33;27.67;;;;;26.38;63.88;100629.75;4911069;29;44799;-82
2023/09/11 02:49:02;;;;;;;;;27.00;27.00;;;;;26.33;64.35;100619.97;4910147;28;44839;-82
2023/09/11 02:51:28;;;;;;;;;30.67;28.67;;;;;26.28;64.32;100600.28;4911396;29;45430;-82
2023/09/11 02:53:54;;;;;;;;;29.67;29.33;;;;;26.21;64.29;100587.91;4911284;28;46675;-83
2023/09/11 02:56:20;;;;;;;;;28.00;27.00;;;;;26.30;64.26;100605.66;4911782;28;45405;-82
2023/09/11 02:58:52;;;;;;;;;28.33;27.67;;;;;26.31;64.54;100607.41;4893227;29;44848;-83
2023/09/11 03:04:39;;;;;;;;;24.00;24.00;;;;;26.30;64.33;100613.84;4912533;28;45005;-83
2023/09/11 03:07:05;;;;;;;;;26.67;26.00;;;;;26.23;64.36;100596.03;4911546;28;44809;-83
2023/09/11 03:09:30;;;;;;;;;28.67;26.33;;;;;26.27;64.54;100606.66;4909934;29;44789;-83
2023/09/11 03:11:56;;;;;;;;;28.00;26.67;;;;;26.25;65.14;100602.28;4910353;28;44861;-83
2023/09/11 03:14:21;;;;;;;;;28.67;28.33;;;;;26.17;65.10;100590.91;4910556;28;45154;-83
2023/09/11 03:20:09;;;;;;;;;26.33;26.33;;;;;26.24;65.26;100581.41;4911527;28;44840;-83
2023/09/11 03:22:34;;;;;;;;;31.67;29.67;;;;;26.11;65.21;100573.91;4908647;28;44871;-83
2023/09/11 03:25:00;;;;;;;;;28.00;26.67;;;;;26.15;65.33;100580.06;4910509;28;47324;-83
2023/09/11 03:27:25;;;;;;;;;28.33;26.33;;;;;26.07;65.46;100564.13;4910808;28;45308;-83
2023/09/11 03:30:46;;;;;;;;;28.67;27.67;;;;;26.27;65.57;100581.25;4910484;28;44986;-84
2023/09/11 03:33:12;;;;;;;;;27.00;27.00;;;;;26.06;65.64;100564.22;4911632;28;45396;-84
2023/09/11 03:35:37;;;;;;;;;26.00;25.00;;;;;26.07;65.47;100574.16;4911428;28;45458;-84
2023/09/11 03:38:03;;;;;;;;;29.00;28.33;;;;;26.03;65.87;100569.81;4895230;28;44869;-83
2023/09/11 03:40:29;;;;;;;;;26.00;25.33;;;;;25.94;65.71;100561.19;4911514;28;44795;-83
2023/09/11 03:42:55;;;;;;;;;33.67;31.33;;;;;25.97;66.12;100568.31;4908888;28;45565;-83
2023/09/11 03:45:20;;;;;;;;;29.67;28.67;;;;;25.90;66.28;100550.53;4909851;29;47256;-83
2023/09/11 03:47:46;;;;;;;;;32.00;29.67;;;;;25.86;66.24;100554.34;4894138;29;44829;-82
2023/09/11 03:50:11;;;;;;;;;28.00;28.00;;;;;25.84;66.52;100551.69;4892542;28;45349;-83
2023/09/11 03:52:38;;;;;;;;;29.00;27.00;;;;;25.93;66.40;100555.81;4908456;28;45343;-82
2023/09/11 03:55:04;;;;;;;;;29.67;27.67;;;;;25.83;66.74;100562.66;4909121;29;45452;-83
2023/09/11 03:57:32;;;;;;;;;26.00;26.00;;;;;25.80;66.36;100565.56;4910089;28;44729;-83
2023/09/11 03:59:57;;;;;;;;;31.00;28.67;;;;;25.71;66.96;100551.47;4892977;29;44875;-83
2023/09/11 04:02:24;;;;;;;;;26.67;26.67;;;;;25.71;66.88;100554.19;4909027;28;45654;-82
2023/09/11 04:04:49;;;;;;;;;28.33;28.33;;;;;25.65;67.04;100551.78;4910921;28;45173;-83
2023/09/11 04:07:16;;;;;;;;;33.33;29.00;;;;;25.79;66.97;100540.16;4911982;28;44764;-84
2023/09/11 04:09:41;;;;;;;;;31.33;30.33;;;;;25.64;67.08;100549.13;4894011;28;44940;-84
2023/09/11 04:12:08;;;;;;;;;24.67;24.67;;;;;25.68;66.27;100551.63;4909685;28;44883;-83
2023/09/11 04:14:37;;;;;;;;;28.00;28.00;;;;;25.67;66.40;100548.97;4909986;28;45445;-83
2023/09/11 04:17:02;;;;;;;;;30.33;27.67;;;;;25.67;66.29;100538.97;4893008;28;44836;-84
2023/09/11 04:19:28;;;;;;;;;28.33;26.00;;;;;25.64;66.63;100530.94;4911545;28;45380;-83
2023/09/11 04:21:53;;;;;;;;;29.33;29.33;;;;;25.58;66.33;100520.38;4894881;29;45098;-83
2023/09/11 04:24:19;;;;;;;;;29.00;28.00;;;;;25.53;66.70;100517.91;4909949;28;45377;-84
2023/09/11 04:26:46;;;;;;;;;28.00;28.00;;;;;25.69;66.58;100530.69;4909637;28;44832;-83
2023/09/11 04:29:11;;;;;;;;;23.33;22.67;;;;;25.48;66.54;100528.13;4910175;29;44872;-84
2023/09/11 04:31:38;;;;;;;;;27.00;25.67;;;;;25.53;67.08;100533.31;4909734;28;45410;-83
2023/09/11 04:34:04;;;;;;;;;29.67;29.67;;;;;25.48;66.93;100527.25;4909778;28;45685;-84
2023/09/11 04:36:30;;;;;;;;;32.67;30.00;;;;;25.45;66.64;100530.13;4909187;28;45001;-84
2023/09/11 04:38:55;;;;;;;;;27.00;27.00;;;;;25.45;66.77;100524.69;4909968;28;45108;-84
2023/09/11 04:41:21;;;;;;;;;29.00;28.67;;;;;25.45;66.84;100531.03;4913991;28;45319;-83
2023/09/11 04:43:46;;;;;;;;;27.33;24.33;;;;;25.43;66.66;100530.22;4912441;29;47134;-84
2023/09/11 04:46:12;;;;;;;;;26.67;25.67;;;;;25.43;66.57;100529.31;4917237;28;45237;-84
2023/09/11 04:48:38;;;;;;;;;28.33;27.67;;;;;25.43;66.43;100532.03;4915338;28;45341;-84
2023/09/11 04:51:04;;;;;;;;;29.33;27.00;;;;;25.40;66.44;100534.94;4912179;28;44922;-84
2023/09/11 04:53:32;;;;;;;;;24.33;23.33;;;;;25.47;66.53;100531.81;4915954;28;45073;-83
2023/09/11 04:55:58;;;;;;;;;28.67;27.67;;;;;25.26;66.81;100528.34;4916575;28;45376;-83
2023/09/11 04:58:25;;;;;;;;;29.33;28.67;;;;;25.23;66.99;100523.06;4898299;29;44893;-83
2023/09/11 05:00:53;;;;;;;;;24.00;22.67;;;;;25.28;67.34;100531.88;4914249;28;45371;-83
2023/09/11 05:03:18;;;;;;;;;28.33;28.33;;;;;25.23;67.32;100535.78;4913114;28;45316;-83
2023/09/11 05:05:46;;;;;;;;;31.67;30.00;;;;;25.21;67.14;100529.50;4914093;29;45394;-84
2023/09/11 05:08:11;;;;;;;;;29.67;28.33;;;;;25.18;67.33;100524.22;4915054;28;44767;-84
2023/09/11 05:10:46;;;;;;;;;29.00;28.67;;;;;25.33;67.39;100524.38;4914160;28;44791;-84
2023/09/11 05:13:12;;;;;;;;;32.67;29.33;;;;;25.22;67.18;100525.84;4914196;29;46626;-84
2023/09/11 05:15:38;;;;;;;;;33.00;31.33;;;;;25.17;67.21;100523.34;4914998;29;44772;-84
2023/09/11 05:18:04;;;;;;;;;27.00;26.67;;;;;25.04;67.41;100511.28;4914282;28;45344;-84
2023/09/11 05:20:32;;;;;;;;;31.33;29.00;;;;;25.12;67.72;100525.41;4915112;28;45529;-84
2023/09/11 05:22:57;;;;;;;;;27.67;26.33;;;;;25.14;67.81;100531.66;4896959;28;47016;-84
2023/09/11 05:25:24;;;;;;;;;32.33;30.67;;;;;25.19;67.83;100540.47;4912539;29;44791;-84
2023/09/11 05:27:50;;;;;;;;;37.67;31.67;;;;;25.19;67.73;100540.47;4895165;29;44838;-84
2023/09/11 05:30:15;;;;;;;;;30.33;29.33;;;;;25.13;67.82;100532.63;4912990;28;44811;-84
2023/09/11 05:32:41;;;;;;;;;28.00;25.00;;;;;25.15;67.94;100541.59;4897287;28;46577;-84
2023/09/11 05:35:07;;;;;;;;;30.67;30.33;;;;;25.14;68.46;100540.69;4897958;28;45476;-83
2023/09/11 05:37:34;;;;;;;;;29.67;27.33;;;;;25.15;68.54;100547.03;4914631;29;45264;-83
2023/09/11 05:40:00;;;;;;;;;29.67;27.00;;;;;25.07;69.08;100541.09;4915413;29;44754;-84
2023/09/11 05:45:48;;;;;;;;;33.33;32.00;;;;;25.10;69.08;100549.09;4911014;29;45413;-83
2023/09/11 05:48:13;;;;;;;;;26.67;25.00;;;;;25.14;69.43;100547.97;4911932;29;44759;-84
2023/09/11 05:50:39;;;;;;;;;32.00;29.33;;;;;25.14;68.95;100554.28;4912414;28;44935;-83
2023/09/11 05:53:08;;;;;;;;;29.00;29.00;;;;;25.14;68.86;100557.00;4911641;28;45248;-84
2023/09/11 06:16:29;;;;;;;;;35.00;30.00;;;;;25.38;68.20;100523.25;5318683;23;45910;-84
2023/09/11 07:51:22;;;;;;;;;26.33;25.00;;;;;27.57;59.67;100581.25;5505357;23;47049;-82
2023/09/11 07:53:58;;;;;;;;;29.33;25.33;;;;;27.51;59.77;100571.56;4890147;29;46099;-84
2023/09/11 07:56:34;;;;;;;;;24.33;24.33;;;;;27.42;59.36;100580.28;4893462;29;45480;-83
2023/09/11 07:59:04;;;;;;;;;25.00;24.00;;;;;27.59;59.40;100579.31;4889277;29;48434;-84
2023/09/11 08:02:14;;;;;;;;;21.33;21.33;;;;;27.71;58.88;100592.25;4878915;29;44792;-84
2023/09/11 08:04:43;;;;;;;;;28.67;25.67;;;;;27.68;58.83;100588.81;4876367;29;44965;-84
2023/09/11 08:15:29;;;;;;;;;22.33;20.00;;;;;27.75;57.99;100584.72;3101990;23;45822;-80
2023/09/11 08:18:08;;;;;;;;;24.00;23.00;;;;;27.54;57.98;100567.75;4891546;28;45142;-80
2023/09/11 08:20:41;;;;;;;;;26.00;23.67;;;;;27.62;57.84;100590.03;4910857;28;45314;-80
2023/09/11 08:23:13;;;;;;;;;30.00;23.33;;;;;27.87;58.18;100589.47;4916988;28;45914;-81
2023/09/11 08:25:39;;;;;;;;;24.33;21.67;;;;;27.83;57.51;100587.84;4925757;28;44832;-80
2023/09/11 08:28:16;;;;;;;;;21.67;20.00;;;;;28.07;57.44;100590.13;4929391;28;46614;-80
2023/09/11 08:31:15;;;;;;;;;28.33;25.67;;;;;28.08;57.17;100580.94;4929244;28;45407;-81
2023/09/11 08:33:46;;;;;;;;;21.67;20.33;;;;;28.30;56.72;100595.03;4908857;28;45206;-81
2023/09/11 08:39:45;;;;;;;;;23.33;22.33;;;;;28.39;56.18;100579.91;4804607;29;45144;-80
2023/09/11 08:42:59;;;;;;;;;25.67;25.67;;;;;28.72;55.38;100589.69;4834730;29;45009;-81
2023/09/11 08:46:04;;;;;;;;;24.67;22.67;;;;;28.83;55.27;100594.50;4783229;29;45115;-81
2023/09/11 08:48:43;;;;;;;;;9.67;8.67;;;;;28.72;54.79;100574.19;4770335;29;45006;-81
2023/09/11 08:51:43;;;;;;;;;23.00;19.00;;;;;28.82;55.25;100592.72;4784760;29;47007;-82
2023/09/11 08:54:39;;;;;;;;;23.33;21.67;;;;;28.56;55.05;100553.34;4777120;29;45766;-81
2023/09/11 10:31:48;;;;;;;;;;;;;;;;;;;;;
2023/09/11 10:34:25;;;;;;;;;10.67;10.33;;;;;28.64;53.88;100638.56;4784538;29;72264;-83
2023/09/11 10:37:28;;;;;;;;;12.67;11.00;;;;;28.81;54.02;100624.69;4784025;29;44843;-83
2023/09/11 10:40:03;;;;;;;;;10.00;10.00;;;;;29.02;53.57;100621.56;4781344;29;45383;-82
2023/09/11 10:42:32;;;;;;;;;11.33;11.33;;;;;28.99;53.52;100613.56;4788243;29;45386;-82
2023/09/11 10:45:18;;;;;;;;;11.00;11.00;;;;;29.15;53.23;100638.09;4805280;29;44868;-82
2023/09/11 10:48:04;;;;;;;;;11.33;11.33;;;;;29.27;52.09;100649.13;4770614;29;44862;-83
2023/09/11 10:53:57;;;;;;;;;9.67;8.33;;;;;28.82;52.65;100644.72;4785430;29;44851;-82
2023/09/11 10:56:31;;;;;;;;;9.00;9.00;;;;;28.80;52.93;100655.78;4801432;29;44927;-83
2023/09/11 10:59:10;;;;;;;;;13.00;9.00;;;;;28.89;53.06;100627.81;4806204;29;44796;-83
2023/09/11 11:07:03;;;;;;;;;7.00;7.00;;;;;28.82;53.03;100626.44;4872613;23;45089;-81
2023/09/11 11:09:32;;;;;;;;;11.00;9.67;;;;;28.76;53.31;100602.22;4840346;29;44742;-80
2023/09/11 11:12:10;;;;;;;;;9.00;9.00;;;;;28.57;52.93;100590.69;4838690;29;44825;-82
2023/09/11 11:14:46;;;;;;;;;8.00;7.67;;;;;28.57;53.21;100602.53;4835834;29;48502;-81
2023/09/11 11:17:16;;;;;;;;;10.33;9.67;;;;;28.60;53.14;100598.69;4824298;29;44794;-81
2023/09/11 11:19:52;;;;;;;;;10.00;9.00;;;;;28.47;53.89;100599.44;4817692;29;44884;-83
2023/09/11 11:22:51;;;;;;;;;7.67;6.33;;;;;28.57;53.57;100588.84;4803480;29;45362;-82
2023/09/11 11:25:17;;;;;;;;;7.00;7.00;;;;;28.60;53.55;100599.59;4808285;29;45571;-82
2023/09/11 11:27:45;;;;;;;;;5.00;5.00;;;;;28.69;54.08;100598.13;4802554;29;45547;-82
2023/09/11 11:30:15;;;;;;;;;6.67;6.67;;;;;28.70;53.40;100595.28;4821606;29;44787;-83
2023/09/11 11:32:41;;;;;;;;;8.00;8.00;;;;;28.85;53.82;100587.94;4805157;29;44975;-82
2023/09/11 11:35:56;;;;;;;;;10.33;7.67;;;;;29.04;53.39;100582.13;4810501;29;47215;-82
2023/09/11 11:38:03;;;;;;;;;9.33;8.33;;;;;29.19;52.94;100585.75;4816956;29;45771;-81
2023/09/11 11:40:38;;;;;;;;;12.00;9.00;;;;;29.31;52.80;100586.81;4821180;29;45634;-82
2023/09/11 11:43:04;;;;;;;;;6.00;6.00;;;;;29.42;52.35;100591.56;4803374;29;44926;-82
2023/09/11 11:46:07;;;;;;;;;5.00;5.00;;;;;29.65;51.78;100593.63;4812423;29;46757;-84
2023/09/11 11:48:43;;;;;;;;;6.33;6.33;;;;;29.34;52.23;100563.81;4802652;29;45434;-83
2023/09/11 11:51:16;;;;;;;;;6.33;6.33;;;;;29.47;52.21;100578.41;4776362;29;45185;-82
2023/09/11 11:53:51;;;;;;;;;8.00;7.00;;;;;29.52;52.10;100596.31;4800630;29;44940;-81
2023/09/11 11:56:26;;;;;;;;;9.67;9.67;;;;;29.31;52.51;100582.22;4811328;29;47318;-83
2023/09/11 11:59:47;;;;;;;;;8.33;7.00;;;;;29.29;52.59;100608.81;4802523;29;45846;-81
2023/09/11 12:02:27;;;;;;;;;7.00;7.00;;;;;28.89;53.33;100567.59;4798100;29;44893;-82
2023/09/11 12:04:56;;;;;;;;;7.00;7.00;;;;;28.88;53.30;100574.06;4789440;29;44841;-82
2023/09/11 12:07:52;;;;;;;;;6.33;6.00;;;;;28.75;52.96;100553.06;4814251;29;45438;-84
2023/09/11 12:10:35;;;;;;;;;;;;;;;;;;;;;
2023/09/11 12:16:48;;;;;;;;;7.67;7.67;;;;;28.53;54.60;100560.78;4715130;29;45353;-82
2023/09/11 12:19:19;;;;;;;;;8.00;8.00;;;;;28.60;54.27;100543.97;4710773;30;45415;-82
2023/09/11 12:25:37;;;;;;;;;;;;;;;;;;;;;
2023/09/11 12:28:04;;;;;;;;;7.00;7.00;;;;;29.47;53.18;100559.22;4705554;30;65885;-82
2023/09/11 12:30:41;;;;;;;;;9.00;7.67;;;;;29.31;53.04;100524.69;4728021;29;45536;-82
2023/09/11 12:33:34;;;;;;;;;7.33;5.67;;;;;29.47;52.52;100551.00;4714616;29;44985;-82
2023/09/11 12:42:44;;;;;;;;;4.25;4.25;;;;;29.11;53.04;100527.88;4709703;30;44987;-83
2023/09/11 12:45:32;;;;;;;;;8.00;7.25;;;;;29.39;52.75;100539.69;4705729;30;45448;-80
2023/09/11 12:47:58;;;;;;;;;6.67;6.67;;;;;29.41;52.99;100529.50;4769488;29;44898;-83
2023/09/11 12:50:27;;;;;;;;;7.00;7.00;;;;;29.61;52.33;100519.94;4802516;29;45188;-83
2023/09/11 12:53:03;;;;;;;;;8.00;8.00;;;;;29.69;51.78;100504.72;4823138;29;45604;-83
2023/09/11 12:55:32;;;;;;;;;3.67;3.33;;;;;29.93;51.82;100528.69;4832948;29;44820;-81
2023/09/11 12:58:02;;;;;;;;;8.00;7.25;;;;;30.13;51.45;100520.91;4813770;29;45557;-84
2023/09/11 13:00:32;;;;;;;;;8.25;5.25;;;;;30.15;51.06;100514.31;4802140;29;44945;-86
2023/09/11 13:03:03;;;;;;;;;7.00;6.00;;;;;30.42;50.41;100530.69;4804174;29;45327;-83
2023/09/11 13:05:32;;;;;;;;;6.33;6.33;;;;;30.27;50.46;100490.63;4818993;29;44888;-85
2023/09/11 13:08:13;;;;;;;;;6.33;5.00;;;;;30.43;50.43;100532.44;4820193;29;45271;-83
2023/09/11 13:10:41;;;;;;;;;5.67;5.67;;;;;30.38;50.47;100509.97;4803837;29;45379;-84
2023/09/11 13:13:18;;;;;;;;;5.00;5.00;;;;;30.44;49.63;100523.25;4835172;29;45418;-84
2023/09/11 13:15:49;;;;;;;;;7.33;7.33;;;;;30.59;49.76;100539.56;4820448;29;45337;-81
2023/09/11 13:18:17;;;;;;;;;5.33;5.33;;;;;30.47;49.17;100519.38;4806982;29;44972;-83
2023/09/11 13:20:45;;;;;;;;;8.00;6.00;;;;;30.46;49.63;100529.50;4817896;29;44776;-82
2023/09/11 13:23:11;;;;;;;;;8.67;7.00;;;;;30.10;50.07;100522.00;4819320;29;45584;-82
2023/09/11 13:25:36;;;;;;;;;7.00;7.00;;;;;29.71;50.85;100494.56;4818891;29;44790;-83
2023/09/11 13:28:03;;;;;;;;;7.00;7.00;;;;;29.79;50.71;100523.28;4817901;29;44892;-82
2023/09/11 13:30:43;;;;;;;;;4.67;4.33;;;;;29.65;50.86;100510.50;4801909;29;45489;-83
2023/09/11 13:33:10;;;;;;;;;8.33;7.00;;;;;29.55;51.01;100526.75;4818287;29;47144;-82
2023/09/11 13:35:46;;;;;;;;;6.33;6.00;;;;;29.71;50.86;100526.56;4789024;29;45602;-83
2023/09/11 13:38:17;;;;;;;;;7.00;7.00;;;;;29.54;51.14;100514.00;4822178;29;44854;-83
2023/09/11 13:43:45;;;;;;;;;8.00;7.00;;;;;29.65;50.97;100492.22;4428631;24;12565301;-83
2023/09/11 13:46:14;;;;;;;;;7.00;7.00;;;;;29.74;51.11;100504.44;4833073;29;44852;-83
2023/09/11 13:55:41;;;;;;;;;7.67;7.00;;;;;29.87;50.99;100501.69;4842301;29;45257;-83
2023/09/11 13:58:14;;;;;;;;;11.00;8.33;;;;;29.78;51.06;100478.56;4830224;29;44874;-83
2023/09/11 14:00:40;;;;;;;;;6.67;6.67;;;;;29.67;50.90;100486.59;4827247;29;45072;-84
2023/09/11 14:03:35;;;;;;;;;;;;;;;;;;;;;
2023/09/11 14:06:19;;;;;;;;;8.67;7.33;;;;;29.71;50.90;100479.97;4829373;29;68014;-84
2023/09/11 14:08:45;;;;;;;;;8.33;8.33;;;;;29.80;50.61;100497.66;4810126;29;44976;-83
2023/09/11 14:11:12;;;;;;;;;7.00;7.00;;;;;29.69;49.80;100470.94;4823591;29;46812;-84
2023/09/11 14:13:43;;;;;;;;;7.67;7.67;;;;;29.86;49.35;100492.59;4806383;29;44803;-84
2023/09/11 14:16:20;;;;;;;;;8.33;8.33;;;;;29.95;49.01;100496.53;4791348;29;44798;-85
2023/09/11 14:18:46;;;;;;;;;8.33;6.67;;;;;29.75;49.24;100477.88;4805701;29;44967;-83
2023/09/11 14:21:33;;;;;;;;;;;;;;;;;;;;;
2023/09/11 14:24:46;;;;;;;;;;;;;;;;;;;;;
2023/09/11 14:27:45;;;;;;;;;7.67;7.00;;;;;29.95;49.13;100484.69;4783990;29;67989;-84
2023/09/11 15:14:18;;;;;;;;;17.00;9.67;;;;;30.41;47.53;100460.34;3863292;23;45078;-85
2023/09/11 15:16:57;;;;;;;;;3.67;3.67;;;;;30.21;47.58;100436.19;4839381;29;45231;-84
2023/09/11 15:19:25;;;;;;;;;6.00;6.00;;;;;30.16;47.28;100430.16;4844967;29;44823;-83
2023/09/11 15:21:51;;;;;;;;;6.00;6.00;;;;;30.17;47.23;100443.78;4841482;29;45905;-81
2023/09/11 15:40:15;;;;;;;;;4.00;4.00;;;;;30.29;46.55;100425.53;4862752;23;46797;-83
2023/09/11 15:51:05;;;;;;;;;6.33;6.33;;;;;30.22;50.57;100448.94;4528696;23;45737;-82
2023/09/11 15:56:16;;;;;;;;;9.00;8.00;;;;;29.94;51.66;100431.75;5140141;23;46387;-83
2023/09/11 16:01:27;;;;;;;;;8.67;8.67;;;;;29.86;51.75;100443.25;5359690;23;46257;-85
2023/09/11 16:03:56;;;;;;;;;8.33;8.00;;;;;29.92;51.65;100425.50;4862160;29;45281;-83
2023/09/11 16:06:25;;;;;;;;;7.33;7.33;;;;;30.02;52.16;100440.28;4845192;29;44827;-84
2023/09/11 16:08:51;;;;;;;;;10.33;10.00;;;;;29.91;51.75;100426.47;4858256;29;44845;-84
2023/09/11 16:14:40;;;;;;;;;6.00;6.00;;;;;30.38;51.30;100441.38;4861315;29;45233;-84
2023/09/11 16:17:05;;;;;;;;;8.33;8.33;;;;;30.38;51.52;100443.22;4843069;29;44758;-85
2023/09/11 16:19:31;;;;;;;;;10.67;9.67;;;;;30.39;51.45;100445.84;4842808;29;44845;-85
2023/09/11 16:22:05;;;;;;;;;7.67;7.67;;;;;30.26;51.32;100455.97;4860058;29;44923;-84
2023/09/11 16:24:32;;;;;;;;;8.67;8.67;;;;;29.96;51.48;100427.03;4843268;29;46743;-84
2023/09/11 16:26:58;;;;;;;;;8.00;8.00;;;;;29.74;51.84;100424.06;4850934;29;44940;-86
2023/09/11 16:29:23;;;;;;;;;9.33;9.33;;;;;29.57;51.99;100426.13;4860972;29;44848;-88
2023/09/11 16:31:49;;;;;;;;;7.67;7.33;;;;;29.43;52.38;100431.66;4857792;29;44866;-86
2023/09/11 16:34:19;;;;;;;;;11.00;10.33;;;;;29.52;52.11;100439.25;4937644;23;46923;-83
2023/09/11 16:36:53;;;;;;;;;7.33;6.00;;;;;29.51;51.90;100453.91;4813749;29;44739;-83
2023/09/11 16:39:19;;;;;;;;;9.00;9.00;;;;;29.34;52.43;100451.50;4808371;29;44909;-82
2023/09/11 16:41:58;;;;;;;;;7.67;7.67;;;;;29.20;52.09;100442.34;4795462;29;44851;-84
2023/09/11 16:44:27;;;;;;;;;7.00;7.00;;;;;29.05;52.28;100421.47;4829791;29;45181;-83
2023/09/11 16:46:59;;;;;;;;;8.33;8.33;;;;;29.18;52.21;100438.84;4829595;29;44813;-83
2023/09/11 16:49:30;;;;;;;;;8.00;7.67;;;;;29.03;52.49;100454.44;4826721;29;44976;-83
2023/09/11 16:51:56;;;;;;;;;7.00;7.00;;;;;29.02;52.36;100455.41;4831116;29;44845;-83
2023/09/11 16:54:25;;;;;;;;;8.00;6.00;;;;;28.97;52.47;100432.09;4811270;29;46938;-84
2023/09/11 16:56:50;;;;;;;;;3.00;3.00;;;;;28.84;52.33;100426.53;4829400;29;44894;-82
2023/09/11 16:59:17;;;;;;;;;6.00;5.67;;;;;28.93;52.34;100443.22;4809669;29;45534;-83
2023/09/11 17:01:42;;;;;;;;;6.67;6.67;;;;;28.89;52.11;100436.19;4820879;29;44838;-84
2023/09/11 17:04:14;;;;;;;;;10.00;8.00;;;;;28.77;52.33;100409.66;4820930;29;45302;-82
2023/09/11 17:06:40;;;;;;;;;9.00;7.00;;;;;28.69;52.48;100412.91;4802353;29;45403;-85
2023/09/11 17:09:05;;;;;;;;;6.33;6.33;;;;;28.80;52.71;100430.47;4805378;29;44805;-85
2023/09/11 17:11:31;;;;;;;;;8.00;8.00;;;;;28.66;52.90;100415.88;4805498;29;44813;-85
2023/09/11 17:13:56;;;;;;;;;8.67;8.00;;;;;28.73;52.35;100428.13;4799851;29;46635;-84
2023/09/11 17:16:25;;;;;;;;;8.67;7.33;;;;;28.76;53.07;100443.47;4823733;29;44882;-84
2023/09/11 17:18:56;;;;;;;;;6.00;6.00;;;;;28.86;53.17;100452.81;4823201;29;45191;-85
2023/09/11 17:21:28;;;;;;;;;8.00;8.00;;;;;28.66;52.77;100442.31;4823896;29;44837;-84
2023/09/11 17:23:54;;;;;;;;;9.67;9.67;;;;;28.73;52.98;100449.16;4801676;29;47034;-85